Time;durP1;ratioP1;P1;durP2;ratioP2;P2;SDS_P1;SDS_P2;PMS_P1;PMS_P2;Temp;Humidity;BMP_temperature;BMP_pressure;BME280_temperature;BME280_humidity;BME280_pressure;Samples;Min_cycle;Max_cycle;Signal;HPM_P1;HPM_P2
2022/11/05 00:10:37;;;;;;;5.85;3.00;;;5.80;99.90;;;;;;5017589;28;20068;-48
2022/11/05 00:18:34;;;;;;;3.72;2.85;;;5.80;99.90;;;;;;5017216;28;20038;-49
2022/11/05 00:21:00;;;;;;;8.82;3.40;;;5.90;99.90;;;;;;5014051;28;20057;-53
2022/11/05 00:26:11;;;;;;;8.70;3.83;;;5.90;99.90;;;;;;5011379;28;20072;-48
2022/11/05 00:28:39;;;;;;;6.05;3.40;;;6.00;99.90;;;;;;5009949;28;20030;-51
2022/11/05 00:31:10;;;;;;;5.38;2.75;;;6.00;99.90;;;;;;5016311;28;20036;-48
2022/11/05 00:33:37;;;;;;;7.63;3.67;;;6.00;99.90;;;;;;5016011;28;20124;-48
2022/11/05 00:36:04;;;;;;;5.97;2.75;;;6.00;99.90;;;;;;5012595;28;20041;-52
2022/11/05 00:38:30;;;;;;;4.15;2.75;;;6.10;99.90;;;;;;5016107;28;20033;-48
2022/11/05 00:40:55;;;;;;;8.30;3.25;;;6.10;99.90;;;;;;5006827;28;20428;-49
2022/11/05 00:46:05;;;;;;;7.68;3.20;;;6.20;99.90;;;;;;5014812;28;20041;-49
2022/11/05 00:51:14;;;;;;;4.85;3.42;;;6.20;99.90;;;;;;5012467;28;20084;-50
2022/11/05 00:53:40;;;;;;;8.20;2.92;;;6.20;99.90;;;;;;5018842;28;20025;-52
2022/11/05 00:56:06;;;;;;;3.50;2.92;;;6.20;99.90;;;;;;5021566;28;20030;-51
2022/11/05 00:58:31;;;;;;;5.50;3.35;;;6.20;99.90;;;;;;5017812;28;20446;-51
2022/11/05 01:00:58;;;;;;;8.77;4.03;;;6.20;99.90;;;;;;5020203;28;20524;-48
2022/11/05 01:03:27;;;;;;;4.80;2.63;;;6.10;99.90;;;;;;5023967;28;20033;-48
2022/11/05 01:05:58;;;;;;;9.35;3.15;;;6.10;99.90;;;;;;5022817;28;20029;-49
2022/11/05 01:08:26;;;;;;;7.93;2.60;;;6.10;99.90;;;;;;5022824;28;20022;-49
2022/11/05 01:10:54;;;;;;;10.95;3.45;;;6.10;99.90;;;;;;5023505;28;20077;-52
2022/11/05 01:13:23;;;;;;;5.30;3.35;;;6.10;99.90;;;;;;5023879;28;20556;-52
2022/11/05 01:15:49;;;;;;;8.90;3.70;;;6.00;99.90;;;;;;5023330;28;20013;-54
2022/11/05 01:18:16;;;;;;;5.47;3.13;;;6.00;99.90;;;;;;5014815;28;20029;-50
2022/11/05 01:20:42;;;;;;;7.22;2.88;;;5.90;99.90;;;;;;5023143;28;20087;-50
2022/11/05 01:23:08;;;;;;;7.85;3.15;;;5.90;99.90;;;;;;5022236;28;20045;-49
2022/11/05 01:25:34;;;;;;;5.38;2.90;;;5.90;99.90;;;;;;5019099;28;20026;-51
2022/11/05 01:28:01;;;;;;;6.72;3.22;;;5.80;99.90;;;;;;5011765;28;20030;-49
2022/11/05 01:30:27;;;;;;;9.35;3.30;;;5.80;99.90;;;;;;5023127;28;20021;-48
2022/11/05 01:32:53;;;;;;;7.25;3.25;;;5.80;99.90;;;;;;5021871;28;20476;-51
2022/11/05 01:35:19;;;;;;;5.75;2.75;;;5.80;99.90;;;;;;5022119;28;20049;-51
2022/11/05 01:37:45;;;;;;;7.18;2.92;;;5.80;99.90;;;;;;5023395;28;20025;-52
2022/11/05 01:40:16;;;;;;;6.53;3.17;;;5.70;99.90;;;;;;5017288;28;20516;-50
2022/11/05 01:42:42;;;;;;;7.03;3.05;;;5.70;99.90;;;;;;5019006;28;20037;-49
2022/11/05 01:45:19;;;;;;;5.78;3.40;;;5.70;99.90;;;;;;5021132;28;20030;-50
2022/11/05 01:48:07;;;;;;;6.82;3.22;;;5.60;99.90;;;;;;5014227;28;20124;-49
2022/11/05 01:50:55;;;;;;;3.97;2.45;;;5.60;99.90;;;;;;5019460;28;20105;-50
2022/11/05 01:53:45;;;;;;;4.03;2.80;;;5.60;99.90;;;;;;5013962;28;20475;-52
2022/11/05 01:56:20;;;;;;;3.80;3.10;;;5.50;99.90;;;;;;5018799;28;20041;-54
2022/11/05 01:58:56;;;;;;;5.78;2.85;;;5.50;99.90;;;;;;5021842;28;20040;-53
2022/11/05 02:01:22;;;;;;;3.65;2.65;;;5.50;99.90;;;;;;5011999;28;20086;-48
2022/11/05 02:03:50;;;;;;;8.30;3.47;;;5.50;99.90;;;;;;5020895;28;20438;-53
2022/11/05 02:06:17;;;;;;;5.53;3.50;;;5.40;99.90;;;;;;5016529;28;20041;-51
2022/11/05 02:09:08;;;;;;;6.63;3.33;;;5.40;99.90;;;;;;5015102;28;20018;-55
2022/11/05 02:11:34;;;;;;;6.82;2.88;;;5.40;99.90;;;;;;5013524;28;20018;-52
2022/11/05 02:13:59;;;;;;;5.72;3.30;;;5.40;99.90;;;;;;5013710;28;20509;-54
2022/11/05 02:16:28;;;;;;;4.43;2.55;;;5.30;99.90;;;;;;5018323;28;20105;-49
2022/11/05 02:19:18;;;;;;;6.05;2.78;;;5.30;99.90;;;;;;5025361;28;20455;-53
2022/11/05 02:22:31;;;;;;;6.45;3.20;;;5.30;99.90;;;;;;4996223;28;20046;-52
2022/11/05 02:25:18;;;;;;;7.60;3.20;;;5.30;99.90;;;;;;4948581;29;20383;-51
2022/11/05 02:28:05;;;;;;;7.45;2.53;;;5.30;99.90;;;;;;5011160;28;20129;-51
2022/11/05 02:30:52;;;;;;;8.77;2.80;;;5.30;99.90;;;;;;5013363;28;20484;-51
2022/11/05 02:33:25;;;;;;;7.32;2.55;;;5.20;99.90;;;;;;5011320;28;20026;-50
2022/11/05 02:36:09;;;;;;;5.63;2.80;;;5.20;99.90;;;;;;5020096;28;20201;-55
2022/11/05 02:38:38;;;;;;;6.72;2.85;;;5.20;99.90;;;;;;5015451;28;20026;-50
2022/11/05 02:41:27;;;;;;;5.43;2.70;;;5.20;99.90;;;;;;5022545;28;20457;-50
2022/11/05 02:44:47;;;;;;;6.07;2.50;;;5.10;99.90;;;;;;5012744;28;20060;-51
2022/11/05 02:47:31;;;;;;;3.88;2.85;;;5.10;99.90;;;;;;4959006;28;20071;-52
2022/11/05 02:50:15;;;;;;;4.32;2.78;;;5.10;99.90;;;;;;5007760;28;20065;-49
2022/11/05 02:53:12;;;;;;;5.65;3.25;;;5.10;99.90;;;;;;5013318;28;20026;-50
2022/11/05 02:55:49;;;;;;;8.38;3.53;;;5.10;99.90;;;;;;4986503;28;20026;-48
2022/11/05 02:58:14;;;;;;;9.80;3.65;;;5.00;99.90;;;;;;5015082;28;20049;-52
2022/11/05 03:00:48;;;;;;;4.05;3.13;;;5.10;99.90;;;;;;5020632;28;20492;-48
2022/11/05 03:03:43;;;;;;;3.80;2.83;;;5.00;99.90;;;;;;5035137;23;20042;-56
2022/11/05 03:06:36;;;;;;;6.47;2.97;;;5.00;99.90;;;;;;5018598;28;20037;-54
2022/11/05 03:09:43;;;;;;;6.90;2.15;;;5.00;99.90;;;;;;5017758;28;20025;-54
2022/11/05 03:12:33;;;;;;;9.13;2.53;;;4.90;99.90;;;;;;5025932;28;20053;-54
2022/11/05 03:15:14;;;;;;;6.13;2.92;;;4.90;99.90;;;;;;5012449;28;20377;-58
2022/11/05 03:17:43;;;;;;;7.38;3.13;;;4.90;99.90;;;;;;5015945;28;20034;-56
2022/11/05 03:20:29;;;;;;;6.93;2.80;;;4.90;99.90;;;;;;5021336;28;20036;-56
2022/11/05 03:23:18;;;;;;;6.97;2.30;;;4.90;99.90;;;;;;4992357;28;20038;-54
2022/11/05 03:25:54;;;;;;;4.72;2.60;;;4.90;99.90;;;;;;4991717;28;20049;-53
2022/11/05 03:28:21;;;;;;;;;;;4.80;99.90;;;;;;5022490;28;20555;-55
2022/11/05 03:30:50;;;;;;;4.10;2.70;;;4.80;99.90;;;;;;5024603;28;19951;-54
2022/11/05 03:33:26;;;;;;;5.25;2.83;;;4.80;99.90;;;;;;5014342;28;20026;-58
2022/11/05 03:35:56;;;;;;;4.95;2.75;;;4.80;99.90;;;;;;5024607;28;20491;-53
2022/11/05 03:38:26;;;;;;;7.15;2.65;;;4.80;99.90;;;;;;5012487;28;20025;-52
2022/11/05 03:40:54;;;;;;;5.28;2.60;;;4.70;99.90;;;;;;5019083;28;20026;-57
2022/11/05 03:43:24;;;;;;;5.28;2.58;;;4.70;99.90;;;;;;5021434;28;20381;-55
2022/11/05 03:45:55;;;;;;;4.90;2.95;;;4.70;99.90;;;;;;5023467;28;20021;-56
2022/11/05 03:48:25;;;;;;;8.25;2.80;;;4.70;99.90;;;;;;5021077;28;20101;-55
2022/11/05 03:51:07;;;;;;;8.32;2.83;;;4.70;99.90;;;;;;5012070;28;20140;-59
2022/11/05 03:53:39;;;;;;;2.38;2.10;;;4.70;99.90;;;;;;5014847;28;20083;-57
2022/11/05 03:56:06;;;;;;;6.35;3.22;;;4.60;99.90;;;;;;5024089;28;20025;-58
2022/11/05 03:58:34;;;;;;;5.13;2.65;;;4.60;99.90;;;;;;5015237;28;20268;-53
2022/11/05 04:01:01;;;;;;;8.70;2.60;;;4.60;99.90;;;;;;5014447;28;20018;-53
2022/11/05 04:03:34;;;;;;;4.38;2.75;;;4.60;99.90;;;;;;5020898;28;20515;-56
2022/11/05 04:14:13;;;;;;;4.78;1.80;;;4.50;99.90;;;;;;5017448;28;20084;-57
2022/11/05 04:24:51;;;;;;;2.70;2.22;;;4.40;99.90;;;;;;5023157;28;20037;-52
2022/11/05 04:27:16;;;;;;;5.60;3.13;;;4.40;99.90;;;;;;5018264;28;20025;-56
2022/11/05 04:32:26;;;;;;;6.53;2.58;;;4.40;99.90;;;;;;5007055;28;20037;-55
2022/11/05 04:34:51;;;;;;;6.20;2.92;;;4.40;99.90;;;;;;5010989;28;20030;-57
2022/11/05 04:37:17;;;;;;;7.20;2.47;;;4.40;99.90;;;;;;5017963;28;20033;-53
2022/11/05 04:39:42;;;;;;;7.07;2.65;;;4.30;99.90;;;;;;5018354;28;20033;-55
2022/11/05 04:42:08;;;;;;;6.57;3.03;;;4.30;99.90;;;;;;5018173;28;20061;-60
2022/11/05 04:44:33;;;;;;;8.40;2.70;;;4.40;99.90;;;;;;5017917;28;20040;-55
2022/11/05 04:46:59;;;;;;;5.35;2.30;;;4.40;99.90;;;;;;5018108;28;20049;-54
2022/11/05 04:49:24;;;;;;;7.68;2.80;;;4.30;99.90;;;;;;5014919;28;20052;-56
2022/11/05 04:51:50;;;;;;;6.00;3.33;;;4.30;99.90;;;;;;5015576;28;20021;-54
2022/11/05 04:54:15;;;;;;;7.65;2.65;;;4.30;99.90;;;;;;5019238;28;20040;-55
2022/11/05 04:56:41;;;;;;;6.13;3.03;;;4.30;99.90;;;;;;5017957;28;20035;-54
2022/11/05 04:59:06;;;;;;;6.15;2.40;;;4.30;99.90;;;;;;5032736;28;20032;-57
2022/11/05 05:01:32;;;;;;;8.32;3.42;;;4.30;99.90;;;;;;5019439;28;20052;-55
2022/11/05 05:03:57;;;;;;;8.90;3.08;;;4.30;99.90;;;;;;5019239;28;20408;-53
2022/11/05 05:06:23;;;;;;;5.03;2.70;;;4.30;99.90;;;;;;5019720;28;20028;-59
2022/11/05 05:08:50;;;;;;;7.18;2.80;;;4.30;99.90;;;;;;5019659;28;20071;-57
2022/11/05 05:11:18;;;;;;;7.20;3.00;;;4.40;99.90;;;;;;5013102;28;20109;-54
2022/11/05 05:13:44;;;;;;;3.90;2.50;;;4.30;99.90;;;;;;5017298;28;20108;-53
2022/11/05 05:16:20;;;;;;;7.72;2.60;;;4.30;99.90;;;;;;5017872;28;20117;-56
2022/11/05 05:18:47;;;;;;;7.90;3.20;;;4.30;99.90;;;;;;5023188;28;20064;-52
2022/11/05 05:23:58;;;;;;;4.65;3.35;;;4.30;99.90;;;;;;5021415;28;20033;-55
2022/11/05 05:26:24;;;;;;;7.43;2.30;;;4.30;99.90;;;;;;5020970;28;20025;-55
2022/11/05 05:28:52;;;;;;;6.75;2.90;;;4.20;99.90;;;;;;5020087;28;20027;-56
2022/11/05 05:31:19;;;;;;;4.10;3.15;;;4.20;99.90;;;;;;5020906;28;20018;-55
2022/11/05 05:33:44;;;;;;;5.57;2.92;;;4.20;99.90;;;;;;5022698;28;20057;-54
2022/11/05 05:36:10;;;;;;;8.57;3.90;;;4.20;99.90;;;;;;5021664;28;20072;-57
2022/11/05 05:38:35;;;;;;;7.50;3.22;;;4.20;99.90;;;;;;5023151;28;20463;-57
2022/11/05 05:41:01;;;;;;;5.13;2.75;;;4.20;99.90;;;;;;5021509;28;20029;-56
2022/11/05 05:43:30;;;;;;;5.45;2.75;;;4.20;99.90;;;;;;5024081;28;20025;-56
2022/11/05 05:46:00;;;;;;;7.15;3.42;;;4.20;99.90;;;;;;5025532;28;20105;-55
2022/11/05 05:48:25;;;;;;;9.23;3.78;;;4.10;99.90;;;;;;5019564;28;20511;-57
2022/11/05 05:50:51;;;;;;;6.97;3.10;;;4.10;99.90;;;;;;5014588;28;20029;-54
2022/11/05 05:53:16;;;;;;;8.98;3.38;;;4.10;99.90;;;;;;5021672;28;20021;-56
2022/11/05 05:55:42;;;;;;;4.22;3.08;;;4.10;99.90;;;;;;5022942;28;20100;-57
2022/11/05 05:58:07;;;;;;;9.35;3.30;;;4.10;99.90;;;;;;5019904;28;20088;-54
2022/11/05 06:00:33;;;;;;;6.60;3.28;;;4.10;99.90;;;;;;5037740;28;20021;-54
2022/11/05 06:02:59;;;;;;;5.07;2.67;;;4.10;99.90;;;;;;5017411;28;20072;-57
2022/11/05 06:05:24;;;;;;;6.13;2.90;;;4.10;99.90;;;;;;5022397;28;20532;-54
2022/11/05 06:07:56;;;;;;;5.28;2.67;;;4.10;99.90;;;;;;5020385;28;20189;-54
2022/11/05 06:10:23;;;;;;;4.03;2.60;;;4.00;99.90;;;;;;5023270;28;20113;-55
2022/11/05 06:12:49;;;;;;;4.03;2.90;;;4.00;99.90;;;;;;5021233;28;20026;-57
2022/11/05 06:15:14;;;;;;;7.78;3.03;;;4.00;99.90;;;;;;5019653;28;20486;-52
2022/11/05 06:17:42;;;;;;;7.15;3.38;;;4.00;99.90;;;;;;5022485;28;20026;-58
2022/11/05 06:20:09;;;;;;;6.55;3.38;;;3.90;99.90;;;;;;5020056;28;20516;-53
2022/11/05 06:22:34;;;;;;;6.78;2.90;;;3.90;99.90;;;;;;5020769;28;20599;-55
2022/11/05 06:25:00;;;;;;;7.00;3.40;;;3.90;99.90;;;;;;5020395;28;20109;-52
2022/11/05 06:27:27;;;;;;;4.00;2.75;;;3.90;99.90;;;;;;5024661;28;20488;-55
2022/11/05 06:29:52;;;;;;;4.38;2.85;;;3.90;99.90;;;;;;5019617;28;20033;-56
2022/11/05 06:32:18;;;;;;;5.95;3.35;;;3.90;99.90;;;;;;5018442;28;20059;-56
2022/11/05 06:34:43;;;;;;;6.82;3.58;;;3.90;99.90;;;;;;5011005;28;20030;-59
2022/11/05 06:37:09;;;;;;;5.88;3.15;;;3.90;99.90;;;;;;5016129;28;20042;-53
2022/11/05 06:39:34;;;;;;;5.30;3.17;;;3.90;99.90;;;;;;5017019;28;20026;-56
2022/11/05 06:42:00;;;;;;;6.57;3.15;;;3.90;99.90;;;;;;5020587;28;20116;-54
2022/11/05 06:44:26;;;;;;;3.67;2.70;;;3.90;99.90;;;;;;5024323;28;20483;-54
2022/11/05 06:46:51;;;;;;;7.13;3.13;;;3.90;99.90;;;;;;5018861;28;20305;-56
2022/11/05 06:49:17;;;;;;;5.10;3.05;;;3.90;99.90;;;;;;5017160;28;20022;-55
2022/11/05 06:51:43;;;;;;;4.85;3.22;;;3.90;99.90;;;;;;5014134;28;20510;-56
2022/11/05 06:54:08;;;;;;;5.15;3.22;;;3.90;99.90;;;;;;5018139;28;20721;-54
2022/11/05 06:56:34;;;;;;;5.55;3.03;;;3.90;99.90;;;;;;5015571;28;20096;-56
2022/11/05 06:59:00;;;;;;;5.50;2.63;;;3.90;99.90;;;;;;5013021;28;20076;-54
2022/11/05 07:01:25;;;;;;;3.97;2.88;;;3.90;99.90;;;;;;5021047;28;20036;-53
2022/11/05 07:03:51;;;;;;;5.57;3.40;;;3.90;99.90;;;;;;5016335;28;20033;-56
2022/11/05 07:06:16;;;;;;;7.47;3.85;;;3.90;99.90;;;;;;5020825;28;20113;-59
2022/11/05 07:08:42;;;;;;;5.30;3.13;;;4.00;99.90;;;;;;5019728;28;20013;-56
2022/11/05 07:11:08;;;;;;;3.70;2.95;;;4.00;99.90;;;;;;5021334;28;20026;-53
2022/11/05 07:13:33;;;;;;;6.22;3.45;;;4.00;99.90;;;;;;5021742;28;20480;-57
2022/11/05 07:15:59;;;;;;;6.13;2.90;;;4.00;99.90;;;;;;5019521;28;20022;-54
2022/11/05 07:18:25;;;;;;;7.97;3.88;;;4.00;99.90;;;;;;5018075;28;20132;-57
2022/11/05 07:20:50;;;;;;;8.82;3.17;;;4.00;99.90;;;;;;5021664;28;20029;-52
2022/11/05 07:23:16;;;;;;;7.18;3.70;;;4.10;99.90;;;;;;5019656;28;20032;-55
2022/11/05 07:25:42;;;;;;;3.92;2.78;;;4.10;99.90;;;;;;5014598;28;20538;-56
2022/11/05 07:28:09;;;;;;;7.80;3.25;;;4.10;99.90;;;;;;5016238;28;20041;-55
2022/11/05 07:30:35;;;;;;;3.45;2.55;;;4.10;99.90;;;;;;5013172;28;20195;-52
2022/11/05 07:33:02;;;;;;;14.80;4.47;;;4.20;99.90;;;;;;5009747;28;20030;-57
2022/11/05 07:35:27;;;;;;;4.63;2.83;;;4.20;99.90;;;;;;5010018;28;20026;-57
2022/11/05 07:37:54;;;;;;;5.80;3.70;;;4.20;99.90;;;;;;5018456;28;20159;-56
2022/11/05 07:40:21;;;;;;;8.13;3.47;;;4.30;99.90;;;;;;5021413;28;20017;-54
2022/11/05 07:42:53;;;;;;;5.18;3.22;;;4.30;99.90;;;;;;5020131;28;20049;-55
2022/11/05 07:45:19;;;;;;;11.18;4.35;;;4.30;99.90;;;;;;5019139;28;20017;-55
2022/11/05 07:47:52;;;;;;;10.07;4.35;;;4.40;99.90;;;;;;5023546;28;20380;-52
2022/11/05 07:50:21;;;;;;;7.20;3.50;;;4.40;99.90;;;;;;5011340;28;20040;-53
2022/11/05 07:52:47;;;;;;;11.02;3.50;;;4.50;99.90;;;;;;5014335;28;20092;-57
2022/11/05 07:55:13;;;;;;;3.83;3.42;;;4.60;99.90;;;;;;5020892;28;20056;-55
2022/11/05 07:57:43;;;;;;;11.32;4.68;;;4.70;99.90;;;;;;5016315;28;20106;-55
2022/11/05 08:00:12;;;;;;;8.77;3.50;;;4.70;99.90;;;;;;5017669;28;20026;-52
2022/11/05 08:02:37;;;;;;;7.40;3.60;;;4.80;99.90;;;;;;5017235;28;20069;-54
2022/11/05 08:05:03;;;;;;;7.05;2.90;;;4.90;99.90;;;;;;5025209;28;20064;-52
2022/11/05 08:07:29;;;;;;;4.68;2.90;;;4.90;99.90;;;;;;5018609;28;20025;-54
2022/11/05 08:09:54;;;;;;;7.30;3.17;;;5.00;99.90;;;;;;5020021;28;20014;-55
2022/11/05 08:12:20;;;;;;;5.55;2.83;;;5.10;99.90;;;;;;5017879;28;20464;-55
2022/11/05 08:14:45;;;;;;;12.13;3.30;;;5.20;99.90;;;;;;5018649;28;20014;-56
2022/11/05 08:17:11;;;;;;;6.82;3.28;;;5.30;99.90;;;;;;5017084;28;20061;-56
2022/11/05 08:19:36;;;;;;;9.23;3.80;;;5.30;99.90;;;;;;5022568;28;20061;-56
2022/11/05 08:22:02;;;;;;;12.93;4.10;;;5.40;99.90;;;;;;5018646;28;20108;-52
2022/11/05 08:24:27;;;;;;;5.72;3.28;;;5.50;99.90;;;;;;5022106;28;20484;-56
2022/11/05 08:26:53;;;;;;;11.68;3.42;;;5.60;99.90;;;;;;5020585;28;20026;-56
2022/11/05 08:29:18;;;;;;;8.38;2.80;;;5.70;99.90;;;;;;5017244;28;20017;-55
2022/11/05 08:31:44;;;;;;;8.95;3.17;;;5.70;99.90;;;;;;5016319;28;20056;-55
2022/11/05 08:34:10;;;;;;;5.05;2.90;;;5.80;99.90;;;;;;5017504;28;20531;-56
2022/11/05 08:36:35;;;;;;;10.73;3.47;;;6.00;99.90;;;;;;5021086;28;20033;-56
2022/11/05 08:39:01;;;;;;;5.85;2.92;;;6.00;99.90;;;;;;5034228;28;20029;-53
2022/11/05 08:41:26;;;;;;;8.07;3.20;;;6.10;99.90;;;;;;5014874;28;20091;-58
2022/11/05 08:43:55;;;;;;;7.85;3.45;;;6.20;99.90;;;;;;5020273;28;20017;-56
2022/11/05 08:46:21;;;;;;;7.80;3.63;;;6.30;99.90;;;;;;5015678;28;20029;-57
2022/11/05 08:48:47;;;;;;;5.60;2.42;;;6.40;99.90;;;;;;5037926;28;20361;-56
2022/11/05 08:51:12;;;;;;;10.20;3.50;;;6.40;99.90;;;;;;5011722;28;20025;-54
2022/11/05 08:53:38;;;;;;;8.05;3.25;;;6.50;99.90;;;;;;5022263;28;20479;-56
2022/11/05 08:56:03;;;;;;;4.32;2.78;;;6.60;99.90;;;;;;5013484;28;20038;-55
2022/11/05 08:58:29;;;;;;;4.93;2.20;;;6.70;99.90;;;;;;5015119;28;20611;-53
2022/11/05 09:00:55;;;;;;;5.07;2.75;;;6.70;99.90;;;;;;5017662;28;20022;-56
2022/11/05 09:03:20;;;;;;;6.30;2.53;;;6.80;99.90;;;;;;5043885;23;20396;-62
2022/11/05 09:05:46;;;;;;;4.97;2.38;;;6.90;99.90;;;;;;5039122;28;20018;-62
2022/11/05 09:08:15;;;;;;;8.70;2.67;;;6.90;99.90;;;;;;5040258;28;20017;-59
2022/11/05 09:10:42;;;;;;;6.22;2.67;;;7.00;99.90;;;;;;5027728;28;20488;-61
2022/11/05 09:13:07;;;;;;;3.83;2.58;;;7.10;99.90;;;;;;5036255;28;20503;-60
2022/11/05 09:15:34;;;;;;;8.88;3.10;;;7.20;99.90;;;;;;5057899;28;20078;-62
2022/11/05 09:18:01;;;;;;;6.18;3.05;;;7.30;99.90;;;;;;5046900;28;20484;-60
2022/11/05 09:20:26;;;;;;;7.43;2.10;;;7.40;99.90;;;;;;5057660;28;20020;-58
2022/11/05 09:22:53;;;;;;;6.53;2.45;;;7.40;99.90;;;;;;5055057;28;20021;-58
2022/11/05 09:25:18;;;;;;;5.43;1.88;;;7.50;99.90;;;;;;5044131;28;20023;-62
2022/11/05 09:27:44;;;;;;;4.63;2.15;;;7.60;99.90;;;;;;5056757;28;20616;-61
2022/11/05 09:30:11;;;;;;;8.00;2.53;;;7.70;99.90;;;;;;5048301;28;20566;-61
2022/11/05 09:32:37;;;;;;;6.55;2.10;;;7.70;99.90;;;;;;5054394;28;20013;-62
2022/11/05 09:35:04;;;;;;;4.85;1.80;;;7.80;99.90;;;;;;5049327;28;20100;-63
2022/11/05 09:37:29;;;;;;;3.95;1.70;;;7.90;99.90;;;;;;5052377;28;20451;-60
2022/11/05 09:39:55;;;;;;;3.53;1.88;;;8.00;99.90;;;;;;5055454;28;20060;-59
2022/11/05 09:42:28;;;;;;;3.75;1.83;;;8.10;99.90;;;;;;5044525;28;20016;-58
2022/11/05 09:45:09;;;;;;;4.65;2.25;;;8.20;99.90;;;;;;5056139;28;20033;-61
2022/11/05 09:47:58;;;;;;;5.50;2.20;;;8.20;99.90;;;;;;5050220;28;20400;-60
2022/11/05 09:50:31;;;;;;;4.38;1.90;;;8.30;99.90;;;;;;5049196;28;20037;-63
2022/11/05 09:52:57;;;;;;;5.28;1.55;;;8.40;99.90;;;;;;5058826;28;20026;-61
2022/11/05 09:55:29;;;;;;;4.22;1.83;;;8.50;99.90;;;;;;5049764;28;20414;-62
2022/11/05 09:58:14;;;;;;;5.10;2.00;;;8.60;99.90;;;;;;5043032;28;20504;-63
2022/11/05 10:00:40;;;;;;;5.18;1.83;;;8.60;99.90;;;;;;5056895;28;20166;-62
2022/11/05 10:03:12;;;;;;;4.90;2.03;;;8.70;99.90;;;;;;5055111;28;20124;-64
2022/11/05 10:05:39;;;;;;;5.88;1.92;;;8.80;99.90;;;;;;5062920;28;20451;-63
2022/11/05 10:08:22;;;;;;;4.10;1.48;;;8.90;99.90;;;;;;5057320;28;20075;-63
2022/11/05 10:10:52;;;;;;;3.42;1.88;;;8.90;99.90;;;;;;5060553;28;20063;-62
2022/11/05 10:13:32;;;;;;;5.03;1.20;;;9.00;99.90;;;;;;5056899;28;20030;-60
2022/11/05 10:16:18;;;;;;;7.55;1.42;;;9.10;99.90;;;;;;5046880;28;20037;-50
2022/11/05 10:18:49;;;;;;;6.60;2.05;;;9.10;99.90;;;;;;5062755;28;20036;-49
2022/11/05 10:21:18;;;;;;;6.03;1.58;;;9.10;99.90;;;;;;5059095;28;20078;-49
2022/11/05 10:23:44;;;;;;;4.88;1.42;;;9.20;99.90;;;;;;5065564;28;20029;-48
2022/11/05 10:26:19;;;;;;;4.85;1.40;;;9.30;99.90;;;;;;5060180;28;20020;-48
2022/11/05 10:28:45;;;;;;;2.83;1.08;;;9.30;99.90;;;;;;5058282;28;20021;-50
2022/11/05 10:31:19;;;;;;;5.07;1.60;;;9.40;99.90;;;;;;5053587;28;20120;-54
2022/11/05 10:33:45;;;;;;;6.70;1.48;;;9.40;99.90;;;;;;5057437;28;20025;-58
2022/11/05 10:36:31;;;;;;;3.58;1.63;;;9.50;99.90;;;;;;5055471;28;20017;-57
2022/11/05 10:39:14;;;;;;;22.95;6.95;;;9.60;99.90;;;;;;5052557;28;20026;-57
2022/11/05 10:42:04;;;;;;;41.70;13.35;;;9.70;99.90;;;;;;5054823;28;20483;-57
2022/11/05 10:44:41;;;;;;;75.20;23.60;;;9.70;99.90;;;;;;5044801;28;20489;-56
2022/11/05 10:47:34;;;;;;;4.60;1.88;;;9.80;99.90;;;;;;5056837;28;20120;-56
2022/11/05 10:50:01;;;;;;;11.40;4.20;;;9.90;99.90;;;;;;5058452;28;20017;-56
2022/11/05 10:52:33;;;;;;;4.93;1.17;;;9.90;99.90;;;;;;5058495;28;20016;-57
2022/11/05 10:55:03;;;;;;;3.47;1.50;;;10.00;99.90;;;;;;5053975;28;20100;-58
2022/11/05 10:57:39;;;;;;;4.15;1.55;;;10.00;99.90;;;;;;5050228;28;20025;-59
2022/11/05 11:00:24;;;;;;;5.28;1.40;;;10.10;99.90;;;;;;5051626;28;20033;-57
2022/11/05 11:02:54;;;;;;;4.47;1.10;;;10.10;99.90;;;;;;5054670;28;20025;-53
2022/11/05 11:05:30;;;;;;;2.75;1.25;;;10.20;99.90;;;;;;5061078;28;20102;-54
2022/11/05 11:08:07;;;;;;;;;;;10.30;99.90;;;;;;5049576;28;20020;-52
2022/11/05 11:10:52;;;;;;;2.47;1.00;;;10.30;99.90;;;;;;5055666;28;19912;-53
2022/11/05 11:13:22;;;;;;;7.40;1.00;;;10.30;99.90;;;;;;5043010;28;20433;-54
2022/11/05 11:15:49;;;;;;;3.58;1.00;;;10.40;99.90;;;;;;5055423;28;20394;-52
2022/11/05 11:18:30;;;;;;;2.53;1.02;;;10.40;99.90;;;;;;5051316;28;20024;-53
2022/11/05 11:21:11;;;;;;;1.23;0.70;;;10.50;99.90;;;;;;5060057;28;20016;-55
2022/11/05 11:23:39;;;;;;;6.95;1.50;;;10.50;99.90;;;;;;5060989;28;20494;-56
2022/11/05 11:26:06;;;;;;;3.40;1.33;;;10.50;99.90;;;;;;5060284;28;20546;-51
2022/11/05 11:28:39;;;;;;;2.53;0.93;;;10.60;99.90;;;;;;5050717;28;20398;-54
2022/11/05 11:31:10;;;;;;;4.43;1.55;;;10.60;99.90;;;;;;5059234;28;20100;-51
2022/11/05 11:33:37;;;;;;;4.35;1.85;;;10.60;99.90;;;;;;5048763;28;20526;-50
2022/11/05 11:36:04;;;;;;;3.70;1.23;;;10.70;99.90;;;;;;5060199;28;20134;-53
2022/11/05 11:38:33;;;;;;;3.33;1.58;;;10.70;99.90;;;;;;5060621;28;20454;-50
2022/11/05 11:41:19;;;;;;;1.90;0.88;;;10.70;99.90;;;;;;5059897;28;20028;-50
2022/11/05 11:43:45;;;;;;;5.80;1.00;;;10.70;99.90;;;;;;5054824;28;20379;-52
2022/11/05 11:46:18;;;;;;;4.65;1.33;;;10.80;99.90;;;;;;5056528;28;20043;-53
2022/11/05 11:48:46;;;;;;;5.25;1.25;;;10.80;99.90;;;;;;5053745;28;20032;-51
2022/11/05 11:51:41;;;;;;;2.65;1.35;;;10.90;99.90;;;;;;5051565;28;20111;-56
2022/11/05 11:54:18;;;;;;;4.05;1.05;;;10.90;99.90;;;;;;5046621;28;20492;-55
2022/11/05 11:56:46;;;;;;;5.75;1.85;;;10.90;99.90;;;;;;5057366;28;20032;-55
2022/11/05 11:59:23;;;;;;;5.13;1.00;;;10.90;99.90;;;;;;5050721;28;20111;-58
2022/11/05 12:01:55;;;;;;;5.60;1.40;;;10.90;99.90;;;;;;5058714;28;20021;-55
2022/11/05 12:19:00;;;;;;;2.78;1.13;;;10.80;99.90;;;;;;5139870;27;20876;-52
2022/11/05 12:21:42;;;;;;;3.38;1.40;;;11.00;99.90;;;;;;5158332;22;20051;-51
2022/11/05 12:24:17;;;;;;;7.82;1.90;;;11.00;99.90;;;;;;5081390;28;20055;-54
2022/11/05 12:26:59;;;;;;;5.75;1.48;;;11.00;99.90;;;;;;5085542;28;20017;-56
2022/11/05 12:29:40;;;;;;;2.97;1.25;;;11.00;99.90;;;;;;5079375;28;20025;-50
2022/11/05 12:32:24;;;;;;;5.03;1.50;;;11.00;99.90;;;;;;5085311;28;20013;-54
2022/11/05 12:35:03;;;;;;;1.98;1.30;;;11.00;99.90;;;;;;5084650;28;20071;-56
2022/11/05 12:37:51;;;;;;;3.08;1.73;;;11.00;99.90;;;;;;5086606;28;20102;-58
2022/11/05 12:40:35;;;;;;;5.95;1.50;;;11.00;99.90;;;;;;5084449;28;20017;-58
2022/11/05 12:43:22;;;;;;;5.22;2.50;;;11.00;99.90;;;;;;5083408;28;20016;-58
2022/11/05 12:46:05;;;;;;;2.95;1.75;;;11.00;99.90;;;;;;5067431;28;20027;-56
2022/11/05 12:48:57;;;;;;;2.72;1.52;;;11.00;99.90;;;;;;5084868;28;20039;-57
2022/11/05 12:51:31;;;;;;;4.95;2.20;;;11.00;99.90;;;;;;5034014;28;20032;-57
2022/11/05 12:54:06;;;;;;;4.25;1.40;;;11.00;99.90;;;;;;5077576;28;20038;-55
2022/11/05 12:56:47;;;;;;;3.00;1.58;;;11.00;99.90;;;;;;5082309;28;20021;-56
2022/11/05 12:59:36;;;;;;;5.57;2.00;;;11.00;99.90;;;;;;5084925;28;20044;-56
2022/11/05 13:02:33;;;;;;;2.15;1.35;;;10.90;99.90;;;;;;5084628;28;20531;-56
2022/11/05 13:05:05;;;;;;;3.17;1.85;;;10.90;99.90;;;;;;5084822;28;20063;-57
2022/11/05 13:07:37;;;;;;;2.60;1.80;;;11.00;99.90;;;;;;5066248;28;20478;-58
2022/11/05 13:10:24;;;;;;;2.17;1.48;;;11.00;99.90;;;;;;5068909;28;20446;-58
2022/11/05 13:13:03;;;;;;;31.10;6.85;;;11.00;99.90;;;;;;5084527;28;20103;-59
2022/11/05 13:15:34;;;;;;;9.70;2.85;;;11.10;99.90;;;;;;5085381;28;20028;-61
2022/11/05 13:18:34;;;;;;;5.47;1.75;;;11.10;99.90;;;;;;5080604;28;20466;-60
2022/11/05 13:21:04;;;;;;;3.92;1.48;;;11.10;99.90;;;;;;5071626;28;20036;-53
2022/11/05 13:23:40;;;;;;;3.10;1.58;;;11.10;99.90;;;;;;5071122;28;20095;-54
2022/11/05 13:26:41;;;;;;;4.35;1.50;;;11.10;99.90;;;;;;5071494;28;20115;-56
2022/11/05 13:29:14;;;;;;;4.15;1.88;;;11.10;99.90;;;;;;5048827;28;20047;-56
2022/11/05 13:31:46;;;;;;;7.45;1.60;;;11.10;99.90;;;;;;5065949;28;20029;-52
2022/11/05 13:34:12;;;;;;;2.65;1.52;;;11.20;99.90;;;;;;5071285;28;20013;-49
2022/11/05 13:39:51;;;;;;;4.55;1.73;;;11.30;99.90;;;;;;5064725;28;20510;-48
2022/11/05 13:42:40;;;;;;;2.50;1.42;;;11.30;99.90;;;;;;5071267;28;20067;-49
2022/11/05 13:45:28;;;;;;;4.00;1.90;;;11.20;99.90;;;;;;5067673;28;20013;-49
2022/11/05 13:48:24;;;;;;;3.58;1.42;;;11.20;99.90;;;;;;5052366;28;20021;-51
2022/11/05 13:51:18;;;;;;;2.50;1.50;;;11.20;99.90;;;;;;5065561;28;20028;-49
2022/11/05 13:54:08;;;;;;;2.90;1.77;;;11.20;99.90;;;;;;5071466;28;20040;-51
2022/11/05 13:56:49;;;;;;;4.32;1.67;;;11.20;99.90;;;;;;5070379;28;20534;-55
2022/11/05 13:59:36;;;;;;;2.80;1.80;;;11.20;99.90;;;;;;5058719;28;20027;-51
2022/11/05 14:02:10;;;;;;;5.20;1.80;;;11.30;99.90;;;;;;5062324;28;20066;-51
2022/11/05 14:04:47;;;;;;;3.63;1.95;;;11.30;99.90;;;;;;5052801;28;20514;-51
2022/11/05 14:07:35;;;;;;;7.10;2.53;;;11.30;99.90;;;;;;5070452;28;20108;-53
2022/11/05 14:10:44;;;;;;;1.75;1.60;;;11.20;99.90;;;;;;5050963;28;20117;-50
2022/11/05 14:13:26;;;;;;;3.15;2.15;;;11.20;99.90;;;;;;5053963;28;20041;-50
2022/11/05 14:16:01;;;;;;;5.18;1.80;;;11.20;99.90;;;;;;5063918;28;20032;-51
2022/11/05 14:18:45;;;;;;;4.80;2.78;;;11.10;99.90;;;;;;5069276;28;20399;-51
2022/11/05 14:21:25;;;;;;;4.68;1.80;;;11.10;99.90;;;;;;5070549;28;20038;-53
2022/11/05 14:24:20;;;;;;;6.18;2.08;;;11.10;99.90;;;;;;5070651;28;20103;-52